Time;durP1;ratioP1;P1;durP2;ratioP2;P2;SDS_P1;SDS_P2;PMS_P1;PMS_P2;Temp;Humidity;BMP_temperature;BMP_pressure;BME280_temperature;BME280_humidity;BME280_pressure;Samples;Min_cycle;Max_cycle;Signal;HPM_P1;HPM_P2
2022/11/17 00:00:31;;;;;;;23.03;14.70;;;6.50;92.60;;;;;;4999532;28;20428;-60
2022/11/17 00:02:57;;;;;;;23.43;13.97;;;6.60;92.70;;;;;;5047319;28;20418;-59
2022/11/17 00:05:22;;;;;;;20.63;13.47;;;6.60;92.70;;;;;;5019243;28;20219;-60
2022/11/17 00:07:48;;;;;;;27.13;15.87;;;6.60;92.80;;;;;;5031409;28;20254;-59
2022/11/17 00:10:15;;;;;;;22.13;15.10;;;6.60;92.80;;;;;;4998968;28;20195;-59
2022/11/17 00:15:25;;;;;;;24.60;15.13;;;6.60;92.90;;;;;;5015414;28;20437;-60
2022/11/17 00:23:23;;;;;;;27.57;17.17;;;6.70;93.00;;;;;;5015379;28;20446;-60
2022/11/17 00:25:49;;;;;;;25.10;16.37;;;6.70;93.00;;;;;;5014309;28;20435;-60
2022/11/17 00:28:15;;;;;;;23.67;15.93;;;6.70;93.00;;;;;;5014855;28;20192;-60
2022/11/17 00:36:09;;;;;;;22.93;15.87;;;6.80;93.00;;;;;;5015252;28;20429;-60
2022/11/17 00:38:34;;;;;;;24.27;15.53;;;6.80;93.00;;;;;;4998712;28;20936;-60
2022/11/17 00:41:00;;;;;;;20.70;14.40;;;6.80;93.00;;;;;;5011977;28;20188;-60
2022/11/17 00:43:26;;;;;;;25.23;16.00;;;6.90;93.00;;;;;;4998113;28;20246;-60
2022/11/17 00:45:51;;;;;;;27.33;16.17;;;6.90;93.00;;;;;;5014410;28;20257;-60
2022/11/17 00:48:17;;;;;;;25.63;16.43;;;6.90;93.00;;;;;;4998609;28;20192;-60
2022/11/17 00:50:43;;;;;;;24.77;15.77;;;6.80;92.60;;;;;;4998331;28;20195;-60
2022/11/17 00:53:08;;;;;;;23.97;15.70;;;6.90;92.60;;;;;;5014681;28;20195;-60
2022/11/17 00:55:34;;;;;;;22.10;15.13;;;6.90;92.70;;;;;;5014479;28;20212;-60
2022/11/17 00:58:00;;;;;;;22.87;13.93;;;6.90;92.70;;;;;;5014146;28;20234;-60
2022/11/17 01:00:25;;;;;;;23.50;15.53;;;6.90;92.80;;;;;;5014103;28;20199;-60
2022/11/17 01:02:51;;;;;;;23.57;15.63;;;6.90;92.80;;;;;;5008471;28;20238;-60
2022/11/17 01:05:17;;;;;;;21.23;14.50;;;6.90;92.70;;;;;;5003680;28;20686;-60
2022/11/17 01:07:42;;;;;;;20.73;13.80;;;7.00;92.70;;;;;;4997434;28;20192;-60
2022/11/17 01:10:08;;;;;;;26.07;16.70;;;7.00;92.80;;;;;;4997715;28;20222;-60
2022/11/17 01:12:34;;;;;;;19.60;12.53;;;7.00;92.70;;;;;;5014328;28;20199;-60
2022/11/17 01:15:00;;;;;;;23.10;14.80;;;7.00;92.70;;;;;;4995018;28;20435;-60
2022/11/17 01:17:25;;;;;;;23.23;14.77;;;6.90;92.60;;;;;;4997734;28;20253;-59
2022/11/17 01:19:51;;;;;;;26.57;15.07;;;6.90;92.50;;;;;;5013492;28;20247;-59
2022/11/17 01:22:17;;;;;;;23.30;14.53;;;6.90;92.50;;;;;;4997353;28;20338;-59
2022/11/17 01:24:42;;;;;;;21.17;14.30;;;6.80;92.40;;;;;;4997463;28;20250;-59
2022/11/17 01:27:08;;;;;;;25.00;15.57;;;6.80;92.40;;;;;;5039527;28;20187;-59
2022/11/17 01:29:34;;;;;;;24.47;16.10;;;6.80;92.40;;;;;;5013986;28;20275;-59
2022/11/17 01:31:59;;;;;;;21.77;13.90;;;6.80;92.40;;;;;;5014311;28;20191;-59
2022/11/17 01:34:25;;;;;;;25.43;14.70;;;6.70;92.40;;;;;;5014294;28;20199;-59
2022/11/17 01:39:35;;;;;;;25.47;14.30;;;6.70;92.50;;;;;;5014285;28;20253;-59
2022/11/17 01:42:11;;;;;;;23.50;14.87;;;6.70;92.50;;;;;;5019258;28;20509;-59
2022/11/17 01:44:40;;;;;;;25.03;17.00;;;6.80;92.50;;;;;;5046448;28;20704;-59
2022/11/17 01:47:24;;;;;;;22.90;16.07;;;6.70;92.50;;;;;;5030300;28;20431;-60
2022/11/17 01:49:55;;;;;;;26.23;16.73;;;6.80;92.60;;;;;;5013679;28;20427;-60
2022/11/17 01:52:23;;;;;;;27.67;15.57;;;6.80;92.50;;;;;;5013048;28;20443;-60
2022/11/17 01:54:50;;;;;;;21.67;15.03;;;6.80;92.60;;;;;;5012920;28;20514;-60
2022/11/17 01:57:25;;;;;;;25.00;14.87;;;6.80;92.60;;;;;;4996156;28;20454;-60
2022/11/17 01:59:58;;;;;;;20.50;14.33;;;6.90;92.60;;;;;;5044855;28;20847;-60
2022/11/17 02:02:23;;;;;;;23.57;14.07;;;6.80;92.50;;;;;;5012775;28;20488;-60
2022/11/17 02:05:12;;;;;;;23.33;14.93;;;6.90;92.60;;;;;;4997065;28;20505;-60
2022/11/17 02:07:41;;;;;;;24.10;13.27;;;6.90;92.60;;;;;;5013042;28;20765;-60
2022/11/17 02:10:07;;;;;;;30.17;15.30;;;7.00;92.60;;;;;;5013147;28;20456;-60
2022/11/17 02:12:35;;;;;;;23.63;14.70;;;6.90;92.40;;;;;;4998447;28;20418;-60
2022/11/17 02:15:02;;;;;;;24.50;17.00;;;7.00;92.40;;;;;;5029686;28;20650;-60
2022/11/17 02:17:40;;;;;;;22.53;14.03;;;6.90;92.30;;;;;;5017005;28;20485;-60
2022/11/17 02:20:17;;;;;;;21.93;15.40;;;7.00;92.30;;;;;;5013043;28;20485;-60
2022/11/17 02:22:52;;;;;;;24.53;14.67;;;7.00;92.30;;;;;;5012845;28;20426;-60
2022/11/17 02:25:35;;;;;;;22.50;14.50;;;7.00;92.20;;;;;;5014152;28;20520;-60
2022/11/17 02:28:19;;;;;;;18.00;12.90;;;7.10;92.20;;;;;;5004821;28;20491;-60
2022/11/17 02:30:54;;;;;;;22.87;14.73;;;7.00;92.20;;;;;;5012046;28;20432;-60
2022/11/17 02:34:11;;;;;;;18.97;13.27;;;7.10;92.10;;;;;;5039508;28;20444;-60
2022/11/17 02:37:02;;;;;;;19.83;13.33;;;7.10;92.20;;;;;;5006352;28;20431;-60
2022/11/17 02:39:52;;;;;;;17.93;12.47;;;7.10;92.20;;;;;;5021506;28;20510;-60
2022/11/17 02:45:39;;;;;;;21.90;14.50;;;7.10;92.10;;;;;;5013778;28;20477;-59
2022/11/17 02:48:15;;;;;;;20.70;13.07;;;7.10;92.00;;;;;;5013928;28;20506;-60
2022/11/17 02:50:45;;;;;;;20.13;13.47;;;7.10;92.00;;;;;;5029449;28;20448;-60
2022/11/17 02:53:13;;;;;;;21.70;12.87;;;7.10;91.80;;;;;;5028942;28;20430;-60
2022/11/17 02:55:38;;;;;;;22.83;14.10;;;7.10;91.70;;;;;;5013039;28;20496;-60
2022/11/17 02:58:10;;;;;;;20.70;13.17;;;7.10;91.70;;;;;;5016281;28;20934;-60
2022/11/17 03:00:53;;;;;;;22.70;13.47;;;7.10;91.60;;;;;;5016593;28;20206;-60
2022/11/17 03:03:26;;;;;;;17.43;12.30;;;7.00;91.50;;;;;;5017343;28;20496;-60
2022/11/17 03:06:17;;;;;;;19.03;11.70;;;7.00;91.50;;;;;;5015757;28;20427;-60
2022/11/17 03:08:55;;;;;;;21.30;13.20;;;7.00;91.40;;;;;;5016338;28;20456;-60
2022/11/17 03:11:25;;;;;;;18.60;13.27;;;7.00;91.10;;;;;;5013522;28;20429;-60
2022/11/17 03:14:12;;;;;;;19.93;12.60;;;6.90;91.10;;;;;;5016315;28;20873;-59
2022/11/17 03:16:56;;;;;;;17.27;11.83;;;6.90;91.20;;;;;;5016773;28;20433;-59
2022/11/17 03:19:36;;;;;;;20.07;12.37;;;6.90;91.10;;;;;;5016163;28;20486;-59
2022/11/17 03:22:11;;;;;;;17.60;11.40;;;6.90;91.10;;;;;;5015920;28;20434;-59
2022/11/17 03:24:49;;;;;;;17.17;11.57;;;6.90;91.10;;;;;;5031389;28;20473;-59
2022/11/17 03:27:27;;;;;;;19.10;11.63;;;6.90;91.10;;;;;;5016136;28;20462;-59
2022/11/17 03:30:03;;;;;;;17.03;11.13;;;6.90;91.10;;;;;;5031066;28;20458;-60
2022/11/17 03:32:35;;;;;;;16.70;11.37;;;6.90;91.00;;;;;;5015370;28;20496;-59
2022/11/17 03:35:06;;;;;;;17.13;11.57;;;6.90;91.00;;;;;;5040331;28;20492;-59
2022/11/17 03:37:35;;;;;;;15.20;10.60;;;6.90;91.00;;;;;;5032407;28;20449;-59
2022/11/17 03:40:06;;;;;;;19.80;11.17;;;6.90;90.90;;;;;;5031817;28;20424;-59
2022/11/17 03:42:35;;;;;;;19.20;11.27;;;6.90;90.80;;;;;;5026571;28;20541;-59
2022/11/17 03:45:22;;;;;;;15.33;10.63;;;6.90;90.60;;;;;;5026814;28;20469;-59
2022/11/17 03:47:53;;;;;;;15.83;10.67;;;6.80;90.60;;;;;;5015554;28;20446;-59
2022/11/17 03:50:36;;;;;;;17.00;11.33;;;6.80;90.50;;;;;;5012457;28;20428;-59
2022/11/17 03:53:04;;;;;;;17.20;10.97;;;6.80;90.40;;;;;;5015990;28;20435;-59
2022/11/17 03:55:39;;;;;;;16.17;11.30;;;6.80;90.40;;;;;;5014771;28;20430;-59
2022/11/17 03:58:12;;;;;;;16.40;11.17;;;6.80;90.30;;;;;;5012529;28;20458;-59
2022/11/17 04:00:40;;;;;;;14.90;10.40;;;6.70;90.30;;;;;;5014761;28;20438;-59
2022/11/17 04:03:06;;;;;;;15.13;10.20;;;6.70;90.20;;;;;;5016056;28;20426;-59
2022/11/17 04:05:32;;;;;;;18.47;10.47;;;6.60;90.10;;;;;;5000161;28;21012;-59
2022/11/17 04:07:57;;;;;;;14.70;9.97;;;6.60;90.00;;;;;;4998741;28;20196;-59
2022/11/17 04:10:25;;;;;;;15.10;9.87;;;6.60;90.00;;;;;;5019988;28;20231;-59
2022/11/17 04:15:57;;;;;;;16.73;11.00;;;6.40;89.80;;;;;;5014641;28;20433;-59
2022/11/17 04:18:22;;;;;;;16.70;10.70;;;6.30;89.80;;;;;;5014840;28;20831;-59
2022/11/17 04:20:53;;;;;;;14.57;10.13;;;6.30;89.80;;;;;;5041334;28;20979;-59
2022/11/17 04:23:19;;;;;;;15.47;10.37;;;6.30;89.80;;;;;;5014755;28;20433;-59
2022/11/17 04:28:35;;;;;;;16.77;11.10;;;6.20;89.80;;;;;;5015181;28;20429;-59
2022/11/17 04:31:18;;;;;;;14.87;9.83;;;6.00;89.80;;;;;;5031729;28;20430;-59
2022/11/17 04:33:48;;;;;;;16.63;10.63;;;6.00;89.70;;;;;;4995238;28;20530;-59
2022/11/17 04:36:23;;;;;;;15.70;9.90;;;5.90;89.80;;;;;;5014465;28;20457;-59
2022/11/17 04:38:53;;;;;;;13.13;9.03;;;5.90;89.80;;;;;;4754999;28;22620;-64
2022/11/17 04:44:49;;;;;;;14.53;9.83;;;5.80;90.00;;;;;;3555266;28;21348;-59
2022/11/17 04:47:20;;;;;;;18.10;10.20;;;5.80;90.00;;;;;;4903535;28;20476;-59
2022/11/17 04:49:48;;;;;;;13.60;9.10;;;5.80;90.00;;;;;;4118021;28;20491;-59
2022/11/17 04:52:14;;;;;;;17.30;11.13;;;5.80;90.10;;;;;;5014940;28;20535;-59
2022/11/17 04:54:39;;;;;;;17.90;11.47;;;5.80;90.10;;;;;;5014102;28;20202;-59
2022/11/17 04:57:05;;;;;;;16.33;10.60;;;5.80;89.90;;;;;;5014227;28;20195;-59
2022/11/17 04:59:31;;;;;;;16.50;10.10;;;5.80;90.00;;;;;;5000180;28;20200;-58
2022/11/17 05:01:56;;;;;;;14.33;9.43;;;5.70;90.00;;;;;;4998081;28;20654;-58
2022/11/17 05:07:17;;;;;;;14.97;9.57;;;5.80;90.20;;;;;;5014536;28;20194;-58
2022/11/17 05:09:43;;;;;;;18.20;10.63;;;5.80;90.20;;;;;;4996423;28;20443;-58
2022/11/17 05:14:52;;;;;;;16.60;10.73;;;5.80;90.10;;;;;;5014656;28;20202;-58
2022/11/17 05:17:18;;;;;;;17.87;10.47;;;5.80;90.20;;;;;;4994027;28;20451;-60
2022/11/17 05:19:46;;;;;;;18.00;11.00;;;5.80;90.20;;;;;;5009208;28;20253;-61
2022/11/17 05:24:58;;;;;;;14.20;9.53;;;5.80;90.20;;;;;;5010100;28;20524;-62
2022/11/17 05:27:24;;;;;;;19.17;11.10;;;5.90;90.10;;;;;;5013588;28;20502;-62
2022/11/17 05:29:50;;;;;;;13.33;9.13;;;5.90;90.10;;;;;;4997056;28;20209;-61
2022/11/17 05:32:17;;;;;;;16.23;10.37;;;5.90;90.00;;;;;;4994538;28;20191;-61
2022/11/17 05:34:42;;;;;;;16.70;10.57;;;5.90;90.00;;;;;;5012501;28;20482;-61
2022/11/17 05:37:08;;;;;;;17.10;10.73;;;5.90;89.80;;;;;;4997033;28;20941;-61
2022/11/17 05:39:33;;;;;;;16.03;10.17;;;5.90;89.90;;;;;;4996641;28;20203;-61
2022/11/17 05:41:59;;;;;;;14.70;10.87;;;5.90;89.80;;;;;;5011791;28;20195;-61
2022/11/17 05:44:25;;;;;;;14.17;9.70;;;6.00;89.90;;;;;;4996666;28;20215;-61
2022/11/17 05:46:50;;;;;;;14.67;9.87;;;6.00;89.90;;;;;;5012836;28;20184;-61
2022/11/17 05:49:16;;;;;;;14.07;9.27;;;6.00;89.80;;;;;;5012641;28;20263;-61
2022/11/17 05:51:42;;;;;;;13.90;9.47;;;6.00;89.80;;;;;;5013001;28;20238;-61
2022/11/17 05:54:07;;;;;;;17.07;9.80;;;6.00;89.80;;;;;;4996775;28;20198;-61
2022/11/17 05:56:42;;;;;;;15.23;10.50;;;6.00;89.80;;;;;;4995705;28;20275;-61
2022/11/17 05:59:24;;;;;;;16.70;10.43;;;6.10;89.70;;;;;;5029507;28;20183;-61
2022/11/17 06:02:05;;;;;;;15.13;10.17;;;6.00;89.60;;;;;;5012886;28;20510;-61
2022/11/17 06:04:32;;;;;;;15.60;10.10;;;6.10;89.60;;;;;;5027905;28;20504;-61
2022/11/17 06:06:58;;;;;;;14.93;9.03;;;6.00;89.50;;;;;;5012391;28;20418;-61
2022/11/17 06:09:33;;;;;;;14.63;8.90;;;6.10;89.50;;;;;;4996222;28;20465;-61
2022/11/17 06:11:58;;;;;;;14.87;9.97;;;6.00;89.50;;;;;;5036512;28;20422;-61
2022/11/17 06:14:24;;;;;;;11.30;8.27;;;6.10;89.50;;;;;;4996779;28;20437;-62
2022/11/17 06:16:56;;;;;;;10.73;7.63;;;6.10;89.40;;;;;;5012330;28;20198;-61
2022/11/17 06:19:29;;;;;;;10.83;8.13;;;6.00;89.40;;;;;;5011254;28;20233;-61
2022/11/17 06:21:55;;;;;;;15.30;7.90;;;6.10;89.30;;;;;;5029195;28;20439;-61
2022/11/17 06:24:20;;;;;;;11.43;8.10;;;6.00;89.30;;;;;;4998117;28;20805;-61
2022/11/17 06:26:46;;;;;;;11.93;7.73;;;6.00;89.20;;;;;;5012795;28;20188;-61
2022/11/17 06:29:14;;;;;;;10.77;7.73;;;6.00;89.20;;;;;;5035676;28;20199;-61
2022/11/17 06:31:41;;;;;;;12.57;8.23;;;6.00;89.10;;;;;;4998072;28;20191;-61
2022/11/17 06:34:08;;;;;;;12.60;8.60;;;6.00;89.10;;;;;;5000682;28;20447;-61
2022/11/17 06:36:34;;;;;;;11.23;8.53;;;6.00;89.10;;;;;;5031461;28;20431;-61
2022/11/17 06:38:59;;;;;;;10.07;7.83;;;6.00;89.10;;;;;;5032669;28;20442;-61
2022/11/17 06:41:25;;;;;;;12.07;9.10;;;6.00;89.10;;;;;;5008729;28;20199;-61
2022/11/17 06:43:51;;;;;;;16.13;8.23;;;6.00;89.20;;;;;;5000012;28;20660;-61
2022/11/17 06:46:17;;;;;;;13.40;8.93;;;6.00;89.20;;;;;;5000271;28;20279;-61
2022/11/17 06:48:43;;;;;;;10.30;7.87;;;6.00;89.20;;;;;;4999839;28;20191;-61
2022/11/17 06:51:09;;;;;;;16.63;9.43;;;6.10;89.30;;;;;;4998090;28;20450;-61
2022/11/17 06:53:35;;;;;;;13.20;9.03;;;6.00;89.20;;;;;;4999065;28;20183;-61
2022/11/17 06:58:29;;;;;;;15.80;10.43;;;6.10;89.30;;;;;;4999808;28;20183;-61
2022/11/17 07:01:22;;;;;;;15.50;9.50;;;6.10;89.30;;;;;;5015630;28;20431;-61
2022/11/17 07:03:47;;;;;;;14.40;9.87;;;6.20;89.40;;;;;;5012741;28;20489;-61
2022/11/17 07:06:15;;;;;;;16.40;10.53;;;6.30;89.50;;;;;;5048954;28;20426;-61
2022/11/17 07:08:40;;;;;;;13.40;9.57;;;6.30;89.60;;;;;;5013800;28;20195;-61
2022/11/17 07:11:09;;;;;;;16.00;10.00;;;6.40;89.60;;;;;;5004439;28;20434;-61
2022/11/17 07:13:35;;;;;;;16.20;10.53;;;6.40;89.50;;;;;;5038977;28;20184;-61
2022/11/17 07:16:13;;;;;;;14.03;10.70;;;6.40;89.50;;;;;;5014719;28;20442;-61
2022/11/17 07:18:42;;;;;;;15.00;9.93;;;6.50;89.40;;;;;;5014013;28;20231;-61
2022/11/17 07:21:10;;;;;;;15.90;10.10;;;6.50;89.40;;;;;;4998753;28;20450;-62
2022/11/17 07:23:37;;;;;;;15.43;11.57;;;6.60;89.50;;;;;;5030587;28;20421;-62
2022/11/17 07:26:04;;;;;;;20.17;12.13;;;6.60;89.50;;;;;;5031061;28;20433;-62
2022/11/17 07:28:30;;;;;;;16.77;11.87;;;6.70;89.50;;;;;;4998047;28;20446;-62
2022/11/17 07:31:00;;;;;;;17.87;12.07;;;6.80;89.50;;;;;;5015025;28;20418;-62
2022/11/17 07:33:26;;;;;;;19.87;12.33;;;6.80;89.30;;;;;;5014205;28;20218;-62
2022/11/17 07:35:52;;;;;;;18.87;11.83;;;6.90;89.10;;;;;;5030938;28;20434;-62
2022/11/17 07:38:17;;;;;;;16.90;11.03;;;6.90;89.30;;;;;;5013759;28;20468;-62
2022/11/17 07:40:43;;;;;;;21.07;13.20;;;7.10;89.30;;;;;;4996919;28;20286;-61
2022/11/17 07:43:09;;;;;;;18.30;11.20;;;7.20;89.30;;;;;;5013581;28;20199;-61
2022/11/17 07:45:35;;;;;;;16.53;10.87;;;7.30;89.30;;;;;;5014220;28;20306;-62
2022/11/17 07:48:02;;;;;;;17.17;10.30;;;7.30;89.10;;;;;;5026859;28;20235;-62
2022/11/17 07:50:29;;;;;;;18.33;10.93;;;7.30;88.90;;;;;;5008484;28;20419;-62
2022/11/17 07:52:56;;;;;;;17.67;11.23;;;7.40;88.60;;;;;;5020811;28;20465;-62
2022/11/17 07:55:23;;;;;;;15.47;10.07;;;7.40;88.40;;;;;;4997226;28;20430;-62
2022/11/17 07:57:59;;;;;;;15.77;10.57;;;7.40;88.40;;;;;;5030414;28;20423;-62
2022/11/17 08:00:28;;;;;;;14.77;12.03;;;7.50;88.20;;;;;;5014514;28;20480;-61
2022/11/17 08:02:53;;;;;;;16.13;11.80;;;7.50;87.90;;;;;;5015771;28;20436;-62
2022/11/17 08:05:19;;;;;;;19.00;12.00;;;7.60;87.90;;;;;;5006556;28;20589;-62
2022/11/17 08:07:53;;;;;;;15.57;9.70;;;7.70;87.60;;;;;;5014387;28;20260;-61
2022/11/17 08:10:19;;;;;;;15.63;11.20;;;7.70;87.80;;;;;;5004946;28;20422;-61
2022/11/17 08:12:44;;;;;;;13.40;10.00;;;7.80;87.50;;;;;;4997590;28;20450;-61
2022/11/17 08:15:10;;;;;;;14.37;10.77;;;7.90;87.50;;;;;;5014012;28;20195;-62
2022/11/17 08:17:36;;;;;;;13.17;10.00;;;8.00;87.40;;;;;;4999825;28;20565;-62
2022/11/17 08:20:03;;;;;;;13.73;9.27;;;8.00;87.20;;;;;;5026722;28;20243;-61
2022/11/17 08:22:28;;;;;;;13.80;10.40;;;8.10;86.80;;;;;;4996946;28;20290;-61
2022/11/17 08:24:54;;;;;;;13.87;9.97;;;8.20;86.70;;;;;;5014672;28;20601;-61
2022/11/17 08:27:19;;;;;;;17.40;10.73;;;8.20;86.20;;;;;;5013307;28;20219;-61
2022/11/17 08:29:45;;;;;;;16.83;10.20;;;8.20;84.50;;;;;;5013619;28;20199;-61
2022/11/17 08:32:11;;;;;;;12.90;9.77;;;8.20;85.00;;;;;;5000555;28;20189;-61
2022/11/17 08:34:36;;;;;;;12.67;9.73;;;8.20;85.10;;;;;;4999524;28;20195;-61
2022/11/17 08:37:02;;;;;;;12.60;10.10;;;8.30;85.10;;;;;;4997282;28;20231;-61
2022/11/17 08:39:27;;;;;;;16.60;10.43;;;8.30;85.20;;;;;;4997143;28;20192;-61
2022/11/17 08:41:53;;;;;;;14.27;10.60;;;8.40;84.40;;;;;;5002541;28;20195;-62
2022/11/17 08:44:19;;;;;;;13.90;10.57;;;8.40;84.50;;;;;;5009299;28;20215;-61
2022/11/17 08:46:44;;;;;;;13.63;10.23;;;8.40;83.90;;;;;;5013749;28;20717;-61
2022/11/17 08:49:10;;;;;;;15.43;9.77;;;8.30;83.20;;;;;;4996918;28;20286;-61
2022/11/17 08:51:36;;;;;;;16.63;11.50;;;8.30;83.70;;;;;;5013273;28;20199;-61
2022/11/17 08:54:01;;;;;;;11.30;9.63;;;8.40;83.80;;;;;;4989278;28;20188;-61
2022/11/17 08:56:27;;;;;;;15.33;9.47;;;8.50;83.70;;;;;;5030245;28;20197;-61
2022/11/17 08:58:52;;;;;;;12.80;10.40;;;8.60;83.90;;;;;;4997507;28;20199;-61
2022/11/17 09:01:18;;;;;;;13.93;9.83;;;8.60;83.80;;;;;;5020065;28;20202;-61
2022/11/17 09:03:46;;;;;;;12.27;10.20;;;8.70;83.70;;;;;;5013481;28;20191;-62
2022/11/17 09:06:14;;;;;;;11.60;9.53;;;8.60;82.70;;;;;;5002869;28;20179;-61
2022/11/17 09:08:39;;;;;;;13.33;9.73;;;8.70;83.10;;;;;;5013030;28;20439;-61
2022/11/17 09:11:08;;;;;;;15.20;10.17;;;8.80;83.10;;;;;;5014294;28;20504;-62
2022/11/17 09:13:34;;;;;;;11.43;9.30;;;8.80;83.30;;;;;;5000715;28;20203;-61
2022/11/17 09:16:01;;;;;;;15.67;10.53;;;8.80;83.00;;;;;;5013795;28;20431;-62
2022/11/17 09:18:27;;;;;;;11.67;9.90;;;8.90;83.00;;;;;;5013133;28;20466;-62
2022/11/17 09:21:04;;;;;;;15.33;10.07;;;8.90;82.80;;;;;;5004929;28;20427;-61
2022/11/17 09:23:30;;;;;;;13.13;9.43;;;8.90;82.30;;;;;;5000894;28;20279;-62
2022/11/17 09:25:57;;;;;;;14.20;10.10;;;9.00;82.30;;;;;;5013191;28;20473;-61
2022/11/17 09:28:24;;;;;;;13.17;9.43;;;9.00;81.40;;;;;;5013231;28;20462;-62
2022/11/17 09:30:51;;;;;;;12.63;9.37;;;9.00;82.00;;;;;;5041740;28;20439;-61
2022/11/17 09:33:17;;;;;;;12.60;10.07;;;9.10;81.70;;;;;;5030121;28;20737;-61
2022/11/17 09:35:42;;;;;;;14.90;10.83;;;9.10;81.40;;;;;;4997001;28;20546;-61
2022/11/17 09:38:08;;;;;;;15.13;10.33;;;9.10;81.20;;;;;;4995885;28;20765;-62
2022/11/17 09:40:34;;;;;;;12.63;9.77;;;9.10;81.40;;;;;;5013083;28;20199;-62
2022/11/17 09:43:00;;;;;;;12.53;10.00;;;9.10;81.60;;;;;;5012454;28;20200;-61
2022/11/17 09:45:32;;;;;;;15.00;8.63;;;9.20;81.40;;;;;;5013299;28;20219;-62
2022/11/17 09:48:13;;;;;;;14.07;10.27;;;9.20;81.50;;;;;;5018949;28;20199;-61
2022/11/17 09:50:42;;;;;;;12.23;9.13;;;9.20;80.90;;;;;;5013017;28;20541;-61
2022/11/17 09:53:29;;;;;;;12.17;9.30;;;9.30;81.60;;;;;;5038744;28;20195;-62
2022/11/17 09:55:59;;;;;;;10.43;8.37;;;9.30;82.10;;;;;;5011621;28;20444;-62
2022/11/17 09:58:31;;;;;;;10.83;7.97;;;9.30;81.90;;;;;;5013678;28;20462;-61
2022/11/17 10:00:57;;;;;;;9.67;8.60;;;9.40;81.80;;;;;;5028232;28;20430;-61
2022/11/17 10:03:31;;;;;;;11.03;9.17;;;9.40;81.10;;;;;;5012621;28;20481;-61
2022/11/17 10:06:00;;;;;;;12.50;8.73;;;9.60;80.70;;;;;;5009376;28;20228;-62
2022/11/17 10:08:39;;;;;;;15.03;10.03;;;9.50;80.70;;;;;;5011884;28;20206;-62
2022/11/17 10:11:30;;;;;;;11.97;9.10;;;9.50;80.70;;;;;;5004195;28;20192;-61
2022/11/17 10:14:09;;;;;;;12.90;9.63;;;9.50;80.30;;;;;;5007348;28;20517;-62
2022/11/17 10:16:36;;;;;;;12.83;10.13;;;9.50;79.60;;;;;;5023508;28;20512;-62
2022/11/17 10:19:19;;;;;;;13.73;10.33;;;9.40;79.90;;;;;;5014404;28;20498;-61
2022/11/17 10:21:50;;;;;;;14.33;9.97;;;9.30;79.50;;;;;;5014347;28;20250;-61
2022/11/17 10:24:33;;;;;;;12.00;8.77;;;9.40;79.60;;;;;;5014165;28;20214;-62
2022/11/17 10:27:04;;;;;;;11.23;8.40;;;9.50;80.30;;;;;;5013281;28;20443;-62
2022/11/17 10:29:30;;;;;;;9.30;8.17;;;9.70;79.70;;;;;;5012065;28;20426;-62
2022/11/17 10:31:56;;;;;;;9.53;7.57;;;9.70;79.60;;;;;;5033692;28;20215;-61
2022/11/17 10:34:32;;;;;;;10.63;8.80;;;9.80;79.40;;;;;;5011311;28;20204;-61
2022/11/17 10:37:20;;;;;;;11.97;7.40;;;9.90;79.30;;;;;;5011598;28;20469;-61
2022/11/17 10:39:46;;;;;;;12.23;9.27;;;10.00;78.90;;;;;;5011304;28;20195;-62
2022/11/17 10:42:26;;;;;;;11.43;9.37;;;10.00;78.10;;;;;;5011734;28;20283;-61
2022/11/17 10:44:56;;;;;;;12.77;9.83;;;10.00;78.20;;;;;;5024250;28;20230;-61
2022/11/17 10:47:24;;;;;;;14.63;10.43;;;10.00;77.90;;;;;;5012709;28;20437;-61
2022/11/17 10:50:19;;;;;;;15.47;11.07;;;10.10;77.70;;;;;;5012254;28;20220;-61
2022/11/17 10:52:46;;;;;;;16.90;11.03;;;10.20;77.60;;;;;;5001958;28;20446;-62
2022/11/17 10:55:30;;;;;;;21.50;13.67;;;10.20;77.30;;;;;;5000617;28;20223;-61
2022/11/17 10:58:01;;;;;;;19.97;12.80;;;10.10;77.70;;;;;;5000168;28;20265;-62
2022/11/17 11:00:35;;;;;;;17.60;13.33;;;10.00;77.70;;;;;;5028469;28;20188;-62
2022/11/17 11:03:23;;;;;;;17.37;12.17;;;10.00;77.90;;;;;;5011824;28;20279;-62
2022/11/17 11:06:22;;;;;;;17.57;12.40;;;10.20;77.70;;;;;;5021560;28;20226;-62
2022/11/17 11:08:52;;;;;;;21.20;14.23;;;10.10;77.40;;;;;;5044384;28;20430;-61
2022/11/17 11:11:40;;;;;;;18.93;11.90;;;10.20;78.00;;;;;;5011362;28;20786;-61
2022/11/17 11:14:37;;;;;;;21.23;14.90;;;10.30;78.00;;;;;;5012689;28;20215;-61
2022/11/17 11:17:15;;;;;;;24.33;14.87;;;10.30;77.60;;;;;;5011745;28;20191;-61
2022/11/17 11:19:50;;;;;;;19.77;15.13;;;10.30;77.30;;;;;;5031434;28;20232;-61
2022/11/17 11:22:44;;;;;;;23.30;14.00;;;10.30;77.60;;;;;;5015640;28;20191;-61
2022/11/17 11:25:37;;;;;;;22.60;13.83;;;10.40;77.90;;;;;;5016898;28;20204;-61
2022/11/17 11:28:13;;;;;;;18.63;11.77;;;10.60;77.70;;;;;;5010544;28;20176;-62
2022/11/17 11:30:53;;;;;;;23.03;15.03;;;10.70;77.60;;;;;;5031429;28;20210;-62
2022/11/17 11:33:27;;;;;;;26.77;15.97;;;10.70;77.10;;;;;;5004418;28;20196;-62
2022/11/17 11:36:24;;;;;;;21.17;14.53;;;10.80;76.20;;;;;;5016608;28;20222;-62
2022/11/17 11:39:17;;;;;;;19.90;15.20;;;10.80;76.20;;;;;;5014167;28;20288;-62
2022/11/17 11:42:10;;;;;;;23.70;16.13;;;10.70;76.60;;;;;;5029154;28;20192;-62
2022/11/17 11:44:43;;;;;;;26.93;17.13;;;10.50;76.10;;;;;;5029697;28;20207;-61
2022/11/17 11:47:34;;;;;;;24.83;16.23;;;10.40;76.80;;;;;;5031371;28;20262;-62
2022/11/17 11:50:32;;;;;;;22.43;15.57;;;10.50;77.10;;;;;;5008706;28;20192;-62
2022/11/17 11:53:19;;;;;;;25.80;16.93;;;10.60;78.20;;;;;;5024293;28;20191;-62
2022/11/17 11:55:48;;;;;;;26.30;16.17;;;10.60;77.20;;;;;;5024779;28;20275;-62
2022/11/17 11:58:22;;;;;;;23.50;16.20;;;10.70;77.30;;;;;;5011694;28;20192;-62
2022/11/17 12:01:10;;;;;;;24.07;16.17;;;10.60;75.80;;;;;;5018686;28;20422;-62
2022/11/17 12:03:59;;;;;;;23.13;14.63;;;10.70;77.10;;;;;;5014328;28;20188;-62
2022/11/17 12:06:52;;;;;;;22.37;15.23;;;10.80;76.70;;;;;;4995136;28;20203;-62
2022/11/17 12:09:32;;;;;;;21.70;15.30;;;10.90;75.80;;;;;;5014684;28;20670;-62
2022/11/17 12:12:01;;;;;;;20.40;14.53;;;10.90;75.00;;;;;;5029979;28;20195;-64
2022/11/17 12:14:32;;;;;;;22.53;14.27;;;11.00;74.90;;;;;;5012799;28;20199;-64
2022/11/17 12:17:22;;;;;;;18.70;13.83;;;11.10;74.50;;;;;;5013429;28;20242;-62
2022/11/17 12:19:53;;;;;;;22.30;13.47;;;11.20;74.40;;;;;;5025333;28;20323;-62
2022/11/17 12:22:31;;;;;;;24.30;14.70;;;11.30;73.70;;;;;;5032005;28;20219;-62
2022/11/17 12:25:31;;;;;;;20.80;13.90;;;11.30;73.50;;;;;;5015365;28;20277;-62
2022/11/17 12:27:57;;;;;;;19.27;14.73;;;11.30;74.20;;;;;;5015397;28;20187;-62
2022/11/17 12:30:31;;;;;;;19.70;13.70;;;11.30;74.30;;;;;;5007447;28;20200;-61
2022/11/17 12:32:59;;;;;;;20.40;13.77;;;11.50;74.70;;;;;;5026115;28;20334;-61
2022/11/17 12:35:33;;;;;;;17.97;12.50;;;11.50;73.30;;;;;;5013564;28;20192;-62
2022/11/17 12:38:14;;;;;;;19.27;12.97;;;11.70;73.60;;;;;;5027833;28;20195;-62
2022/11/17 12:41:06;;;;;;;18.97;13.63;;;11.90;72.40;;;;;;5030057;28;20195;-62
2022/11/17 12:43:33;;;;;;;21.50;14.80;;;11.80;71.80;;;;;;5022994;28;20216;-62
2022/11/17 12:45:58;;;;;;;20.23;14.33;;;11.80;71.20;;;;;;5005916;28;20687;-62
2022/11/17 12:48:25;;;;;;;19.70;13.47;;;11.90;71.40;;;;;;5005299;28;20190;-61
2022/11/17 12:51:12;;;;;;;21.97;14.17;;;12.00;72.50;;;;;;5028141;28;20185;-61
2022/11/17 12:53:47;;;;;;;20.50;13.70;;;12.10;71.10;;;;;;5012201;28;20184;-61
2022/11/17 12:56:22;;;;;;;21.67;13.67;;;12.10;71.60;;;;;;5029347;28;20247;-61
2022/11/17 12:58:50;;;;;;;17.93;12.53;;;12.20;71.60;;;;;;5013950;28;20183;-61
2022/11/17 13:01:38;;;;;;;20.40;14.20;;;12.30;70.40;;;;;;5022344;28;20554;-61
2022/11/17 13:04:09;;;;;;;18.27;12.63;;;12.30;71.00;;;;;;5031584;28;20237;-61
2022/11/17 13:06:35;;;;;;;19.83;13.00;;;12.40;69.90;;;;;;5013846;28;20200;-61
2022/11/17 13:09:05;;;;;;;17.83;12.73;;;12.50;70.60;;;;;;5012861;28;20246;-61
2022/11/17 13:11:31;;;;;;;19.17;12.27;;;12.60;68.80;;;;;;5006101;28;20183;-61
2022/11/17 13:14:14;;;;;;;17.30;12.43;;;12.60;69.40;;;;;;5032865;28;20196;-61
2022/11/17 13:16:48;;;;;;;18.93;12.73;;;12.60;68.90;;;;;;5030030;28;20226;-61
2022/11/17 13:19:30;;;;;;;18.47;13.93;;;12.40;69.20;;;;;;5013318;28;20231;-61
2022/11/17 13:22:15;;;;;;;17.27;11.87;;;12.30;70.20;;;;;;5013318;28;20189;-61
2022/11/17 13:24:46;;;;;;;18.50;12.30;;;12.30;70.40;;;;;;5012757;28;20274;-61
2022/11/17 13:27:22;;;;;;;15.50;11.93;;;12.50;70.10;;;;;;5034497;28;20184;-62
2022/11/17 13:30:24;;;;;;;17.20;11.40;;;12.30;70.30;;;;;;4997328;28;20238;-62
2022/11/17 13:32:50;;;;;;;16.20;11.30;;;12.30;70.60;;;;;;5028355;28;20689;-61
2022/11/17 13:35:32;;;;;;;16.67;11.77;;;12.30;70.70;;;;;;5013216;28;20207;-61
2022/11/17 13:38:09;;;;;;;18.57;11.67;;;12.30;70.80;;;;;;5013075;28;20191;-62
2022/11/17 13:40:36;;;;;;;15.70;11.07;;;12.10;70.60;;;;;;5011483;28;20196;-61